sensor_id;sensor_type;location;lat;lon;timestamp;pressure;altitude;pressure_sealevel;temperature;humidity
37068;BME280;22982;42.848;25.468;2023-04-05T00:00:46;95703.84;;;2.65;100.00
37068;BME280;22982;42.848;25.468;2023-04-05T00:05:49;95646.72;;;2.24;100.00
37068;BME280;22982;42.848;25.468;2023-04-05T00:10:52;95699.25;;;2.49;100.00
37068;BME280;22982;42.848;25.468;2023-04-05T00:15:55;95684.06;;;2.17;100.00
37068;BME280;22982;42.848;25.468;2023-04-05T00:20:59;95691.03;;;2.38;100.00
37068;BME280;22982;42.848;25.468;2023-04-05T00:26:02;95692.34;;;2.26;100.00
37068;BME280;22982;42.848;25.468;2023-04-05T00:31:04;95694.75;;;2.31;100.00
37068;BME280;22982;42.848;25.468;2023-04-05T00:36:11;95703.41;;;2.30;100.00
37068;BME280;22982;42.848;25.468;2023-04-05T00:41:14;95697.28;;;2.33;100.00
37068;BME280;22982;42.848;25.468;2023-04-05T00:46:17;95705.22;;;2.52;100.00
37068;BME280;22982;42.848;25.468;2023-04-05T00:51:20;95699.91;;;2.55;100.00
37068;BME280;22982;42.848;25.468;2023-04-05T00:56:22;95669.72;;;2.32;100.00
37068;BME280;22982;42.848;25.468;2023-04-05T01:01:26;95707.47;;;2.37;100.00
37068;BME280;22982;42.848;25.468;2023-04-05T01:11:44;95716.16;;;2.35;100.00
37068;BME280;22982;42.848;25.468;2023-04-05T01:16:48;95704.75;;;2.40;100.00
37068;BME280;22982;42.848;25.468;2023-04-05T01:27:27;95689.81;;;2.01;100.00
37068;BME280;22982;42.848;25.468;2023-04-05T01:32:49;95717.38;;;2.26;100.00
37068;BME280;22982;42.848;25.468;2023-04-05T01:37:59;95676.19;;;2.20;100.00
37068;BME280;22982;42.848;25.468;2023-04-05T01:43:12;95714.50;;;2.34;100.00
37068;BME280;22982;42.848;25.468;2023-04-05T01:48:15;95707.47;;;2.37;100.00
37068;BME280;22982;42.848;25.468;2023-04-05T01:53:18;95675.34;;;2.19;100.00
37068;BME280;22982;42.848;25.468;2023-04-05T01:58:20;95719.44;;;2.40;100.00
37068;BME280;22982;42.848;25.468;2023-04-05T02:03:23;95665.56;;;2.04;100.00
37068;BME280;22982;42.848;25.468;2023-04-05T02:08:26;95695.09;;;2.22;100.00
37068;BME280;22982;42.848;25.468;2023-04-05T02:13:29;95701.75;;;2.04;100.00
37068;BME280;22982;42.848;25.468;2023-04-05T02:18:31;95708.69;;;2.03;100.00
37068;BME280;22982;42.848;25.468;2023-04-05T02:23:35;95690.19;;;1.65;100.00
37068;BME280;22982;42.848;25.468;2023-04-05T02:28:37;95660.97;;;1.63;100.00
37068;BME280;22982;42.848;25.468;2023-04-05T02:33:40;95685.28;;;1.83;100.00
37068;BME280;22982;42.848;25.468;2023-04-05T02:38:42;95716.78;;;1.94;100.00
37068;BME280;22982;42.848;25.468;2023-04-05T02:43:44;95721.50;;;2.06;100.00
37068;BME280;22982;42.848;25.468;2023-04-05T02:48:47;95689.69;;;1.81;100.00
37068;BME280;22982;42.848;25.468;2023-04-05T02:53:51;95705.59;;;1.68;100.00
37068;BME280;22982;42.848;25.468;2023-04-05T02:58:54;95660.28;;;1.58;100.00
37068;BME280;22982;42.848;25.468;2023-04-05T03:03:58;95680.63;;;1.67;100.00
37068;BME280;22982;42.848;25.468;2023-04-05T03:09:01;95711.34;;;1.77;100.00
37068;BME280;22982;42.848;25.468;2023-04-05T03:14:06;95719.13;;;1.75;100.00
37068;BME280;22982;42.848;25.468;2023-04-05T03:19:16;95713.88;;;1.78;100.00
37068;BME280;22982;42.848;25.468;2023-04-05T03:24:20;95705.47;;;1.71;100.00
37068;BME280;22982;42.848;25.468;2023-04-05T03:29:23;95688.41;;;1.67;100.00
37068;BME280;22982;42.848;25.468;2023-04-05T03:34:27;95712.34;;;1.72;100.00
37068;BME280;22982;42.848;25.468;2023-04-05T03:39:37;95725.53;;;1.90;100.00
37068;BME280;22982;42.848;25.468;2023-04-05T03:44:40;95723.50;;;1.98;100.00
37068;BME280;22982;42.848;25.468;2023-04-05T03:49:42;95716.47;;;1.78;100.00
37068;BME280;22982;42.848;25.468;2023-04-05T03:54:45;95726.06;;;1.75;100.00
37068;BME280;22982;42.848;25.468;2023-04-05T03:59:52;95741.09;;;1.63;100.00
37068;BME280;22982;42.848;25.468;2023-04-05T04:04:54;95747.06;;;1.65;100.00
37068;BME280;22982;42.848;25.468;2023-04-05T04:09:57;95752.75;;;1.75;100.00
37068;BME280;22982;42.848;25.468;2023-04-05T04:14:59;95750.69;;;1.85;100.00
37068;BME280;22982;42.848;25.468;2023-04-05T04:20:25;95773.44;;;2.00;100.00
37068;BME280;22982;42.848;25.468;2023-04-05T04:25:59;95749.06;;;1.82;100.00
37068;BME280;22982;42.848;25.468;2023-04-05T04:31:38;95744.28;;;1.95;100.00
37068;BME280;22982;42.848;25.468;2023-04-05T04:37:01;95749.06;;;1.82;100.00
37068;BME280;22982;42.848;25.468;2023-04-05T04:42:22;95747.69;;;1.72;100.00
37068;BME280;22982;42.848;25.468;2023-04-05T04:48:00;95760.66;;;1.70;100.00
37068;BME280;22982;42.848;25.468;2023-04-05T04:53:21;95781.69;;;2.12;100.00
37068;BME280;22982;42.848;25.468;2023-04-05T04:58:25;95722.13;;;2.13;100.00
37068;BME280;22982;42.848;25.468;2023-04-05T05:03:36;95736.59;;;2.42;100.00
37068;BME280;22982;42.848;25.468;2023-04-05T05:08:39;95738.84;;;2.28;100.00
37068;BME280;22982;42.848;25.468;2023-04-05T05:13:42;95765.94;;;2.65;100.00
37068;BME280;22982;42.848;25.468;2023-04-05T05:18:51;95771.38;;;2.35;100.00
37068;BME280;22982;42.848;25.468;2023-04-05T05:23:56;95771.66;;;2.75;100.00
37068;BME280;22982;42.848;25.468;2023-04-05T05:29:02;95759.09;;;2.64;100.00
37068;BME280;22982;42.848;25.468;2023-04-05T05:34:08;95762.25;;;2.72;100.00
37068;BME280;22982;42.848;25.468;2023-04-05T05:39:14;95764.91;;;2.93;100.00
37068;BME280;22982;42.848;25.468;2023-04-05T05:44:17;95766.97;;;3.29;100.00
37068;BME280;22982;42.848;25.468;2023-04-05T05:49:19;95786.47;;;3.59;100.00
37068;BME280;22982;42.848;25.468;2023-04-05T05:54:21;95770.44;;;2.83;100.00
37068;BME280;22982;42.848;25.468;2023-04-05T05:59:24;95768.69;;;3.72;100.00
37068;BME280;22982;42.848;25.468;2023-04-05T06:04:26;95777.97;;;3.98;100.00
37068;BME280;22982;42.848;25.468;2023-04-05T06:09:30;95774.28;;;4.25;99.79
37068;BME280;22982;42.848;25.468;2023-04-05T06:14:34;95787.56;;;4.37;97.12
37068;BME280;22982;42.848;25.468;2023-04-05T06:19:37;95790.31;;;4.14;97.67
37068;BME280;22982;42.848;25.468;2023-04-05T06:24:39;95797.66;;;4.44;96.05
37068;BME280;22982;42.848;25.468;2023-04-05T06:29:41;95801.41;;;4.17;97.87
37068;BME280;22982;42.848;25.468;2023-04-05T06:34:44;95789.59;;;4.50;96.76
37068;BME280;22982;42.848;25.468;2023-04-05T06:39:49;95788.88;;;4.46;96.66
37068;BME280;22982;42.848;25.468;2023-04-05T06:44:52;95798.84;;;4.36;96.36
37068;BME280;22982;42.848;25.468;2023-04-05T06:49:54;95820.19;;;4.43;93.80
37068;BME280;22982;42.848;25.468;2023-04-05T06:54:57;95817.78;;;4.38;94.63
37068;BME280;22982;42.848;25.468;2023-04-05T06:59:59;95839.16;;;4.25;95.33
37068;BME280;22982;42.848;25.468;2023-04-05T07:05:02;95823.41;;;4.69;94.01
37068;BME280;22982;42.848;25.468;2023-04-05T07:10:07;95808.13;;;5.01;93.07
37068;BME280;22982;42.848;25.468;2023-04-05T07:15:11;95812.88;;;4.32;91.07
37068;BME280;22982;42.848;25.468;2023-04-05T07:20:14;95797.63;;;5.02;93.44
37068;BME280;22982;42.848;25.468;2023-04-05T07:25:17;95823.97;;;5.69;89.29
37068;BME280;22982;42.848;25.468;2023-04-05T07:30:20;95813.56;;;5.69;86.15
37068;BME280;22982;42.848;25.468;2023-04-05T07:35:22;95813.31;;;5.56;89.58
37068;BME280;22982;42.848;25.468;2023-04-05T07:40:24;95815.34;;;5.32;89.24
37068;BME280;22982;42.848;25.468;2023-04-05T07:45:27;95810.19;;;5.49;90.03
37068;BME280;22982;42.848;25.468;2023-04-05T07:50:29;95801.44;;;4.95;89.29
37068;BME280;22982;42.848;25.468;2023-04-05T07:55:32;95829.00;;;4.78;92.58
37068;BME280;22982;42.848;25.468;2023-04-05T08:00:35;95822.38;;;4.92;90.82
37068;BME280;22982;42.848;25.468;2023-04-05T08:05:38;95839.44;;;5.16;90.14
37068;BME280;22982;42.848;25.468;2023-04-05T08:10:41;95807.28;;;5.55;89.33
37068;BME280;22982;42.848;25.468;2023-04-05T08:15:44;95825.06;;;5.65;88.07
37068;BME280;22982;42.848;25.468;2023-04-05T08:20:53;95842.28;;;5.67;87.95
37068;BME280;22982;42.848;25.468;2023-04-05T08:25:56;95837.91;;;5.68;87.78
37068;BME280;22982;42.848;25.468;2023-04-05T08:30:58;95851.88;;;5.84;88.03
37068;BME280;22982;42.848;25.468;2023-04-05T08:36:08;95827.63;;;5.84;86.93
37068;BME280;22982;42.848;25.468;2023-04-05T08:41:17;95843.81;;;6.43;86.01
37068;BME280;22982;42.848;25.468;2023-04-05T08:46:20;95859.13;;;6.49;83.97
37068;BME280;22982;42.848;25.468;2023-04-05T08:51:24;95835.84;;;6.28;85.24
37068;BME280;22982;42.848;25.468;2023-04-05T08:56:34;95848.94;;;6.27;86.10
37068;BME280;22982;42.848;25.468;2023-04-05T09:01:41;95853.47;;;6.06;86.15
37068;BME280;22982;42.848;25.468;2023-04-05T09:06:51;95863.41;;;6.15;84.91
37068;BME280;22982;42.848;25.468;2023-04-05T09:11:56;95831.31;;;5.61;88.26
37068;BME280;22982;42.848;25.468;2023-04-05T09:17:01;95864.25;;;5.79;88.02
37068;BME280;22982;42.848;25.468;2023-04-05T09:22:06;95860.22;;;6.27;85.45
37068;BME280;22982;42.848;25.468;2023-04-05T09:27:14;95880.34;;;6.76;83.23
37068;BME280;22982;42.848;25.468;2023-04-05T09:32:24;95848.19;;;6.42;82.46
37068;BME280;22982;42.848;25.468;2023-04-05T09:37:28;95860.44;;;6.40;84.45
37068;BME280;22982;42.848;25.468;2023-04-05T09:42:42;95861.09;;;7.12;83.14
37068;BME280;22982;42.848;25.468;2023-04-05T09:47:54;95859.84;;;6.86;82.72
37068;BME280;22982;42.848;25.468;2023-04-05T09:53:05;95873.16;;;6.29;85.10
37068;BME280;22982;42.848;25.468;2023-04-05T09:58:12;95864.66;;;6.25;84.88
37068;BME280;22982;42.848;25.468;2023-04-05T10:03:15;95838.13;;;6.52;85.71
37068;BME280;22982;42.848;25.468;2023-04-05T10:08:18;95850.25;;;6.86;85.51
37068;BME280;22982;42.848;25.468;2023-04-05T10:13:20;95827.88;;;6.82;83.00
37068;BME280;22982;42.848;25.468;2023-04-05T10:18:29;95841.44;;;6.89;83.57
37068;BME280;22982;42.848;25.468;2023-04-05T10:23:43;95842.53;;;7.01;80.81
37068;BME280;22982;42.848;25.468;2023-04-05T10:28:51;95850.81;;;7.09;82.29
37068;BME280;22982;42.848;25.468;2023-04-05T10:39:32;95850.56;;;6.29;86.81
37068;BME280;22982;42.848;25.468;2023-04-05T10:44:36;95865.41;;;6.45;86.65
37068;BME280;22982;42.848;25.468;2023-04-05T10:49:46;95816.09;;;6.24;86.34
37068;BME280;22982;42.848;25.468;2023-04-05T10:54:52;95843.34;;;7.03;84.86
37068;BME280;22982;42.848;25.468;2023-04-05T10:59:58;95830.38;;;7.01;80.97
37068;BME280;22982;42.848;25.468;2023-04-05T11:05:04;95851.63;;;7.43;79.60
37068;BME280;22982;42.848;25.468;2023-04-05T11:10:17;95849.59;;;7.48;77.21
37068;BME280;22982;42.848;25.468;2023-04-05T11:20:51;95852.88;;;7.52;78.75
37068;BME280;22982;42.848;25.468;2023-04-05T11:26:02;95843.44;;;7.65;78.77
37068;BME280;22982;42.848;25.468;2023-04-05T11:31:13;95834.56;;;7.83;77.20
37068;BME280;22982;42.848;25.468;2023-04-05T11:36:51;95844.06;;;8.00;77.36
37068;BME280;22982;42.848;25.468;2023-04-05T11:41:58;95800.72;;;7.36;78.60
37068;BME280;22982;42.848;25.468;2023-04-05T11:47:03;95817.00;;;7.07;81.54
37068;BME280;22982;42.848;25.468;2023-04-05T11:52:10;95817.19;;;7.52;77.42
37068;BME280;22982;42.848;25.468;2023-04-05T11:57:21;95830.72;;;7.27;78.54
37068;BME280;22982;42.848;25.468;2023-04-05T12:02:24;95812.78;;;7.21;80.07
37068;BME280;22982;42.848;25.468;2023-04-05T12:07:30;95834.50;;;7.69;79.63
37068;BME280;22982;42.848;25.468;2023-04-05T12:12:40;95811.41;;;8.23;76.89
37068;BME280;22982;42.848;25.468;2023-04-05T12:17:47;95827.06;;;8.54;75.07
37068;BME280;22982;42.848;25.468;2023-04-05T12:22:56;95824.94;;;8.46;73.52
37068;BME280;22982;42.848;25.468;2023-04-05T12:28:05;95796.00;;;8.19;73.01
37068;BME280;22982;42.848;25.468;2023-04-05T12:33:09;95794.09;;;8.37;72.59
37068;BME280;22982;42.848;25.468;2023-04-05T12:38:12;95824.81;;;8.17;76.18
37068;BME280;22982;42.848;25.468;2023-04-05T12:43:16;95790.03;;;7.86;75.83
37068;BME280;22982;42.848;25.468;2023-04-05T12:48:23;95823.84;;;8.04;74.48
37068;BME280;22982;42.848;25.468;2023-04-05T12:53:26;95797.66;;;7.75;75.51
37068;BME280;22982;42.848;25.468;2023-04-05T12:58:34;95822.97;;;7.73;77.95
37068;BME280;22982;42.848;25.468;2023-04-05T13:03:36;95813.78;;;7.66;75.72
37068;BME280;22982;42.848;25.468;2023-04-05T13:08:40;95817.19;;;7.68;74.77
37068;BME280;22982;42.848;25.468;2023-04-05T13:13:42;95812.78;;;7.21;78.83
37068;BME280;22982;42.848;25.468;2023-04-05T13:18:44;95807.41;;;6.92;79.14
37068;BME280;22982;42.848;25.468;2023-04-05T13:23:47;95837.66;;;6.95;79.50
37068;BME280;22982;42.848;25.468;2023-04-05T13:28:49;95822.28;;;7.06;81.48
37068;BME280;22982;42.848;25.468;2023-04-05T13:33:51;95821.19;;;6.94;80.44
37068;BME280;22982;42.848;25.468;2023-04-05T13:38:54;95831.97;;;7.04;81.44
37068;BME280;22982;42.848;25.468;2023-04-05T13:43:57;95829.28;;;6.72;83.23
37068;BME280;22982;42.848;25.468;2023-04-05T13:49:02;95821.78;;;6.15;87.17
37068;BME280;22982;42.848;25.468;2023-04-05T13:54:05;95825.97;;;6.18;87.92
37068;BME280;22982;42.848;25.468;2023-04-05T13:59:07;95841.38;;;6.40;89.26
37068;BME280;22982;42.848;25.468;2023-04-05T14:04:10;95823.16;;;6.22;91.09
37068;BME280;22982;42.848;25.468;2023-04-05T14:09:12;95853.47;;;6.41;92.12
37068;BME280;22982;42.848;25.468;2023-04-05T14:14:33;95794.38;;;6.25;91.46
37068;BME280;22982;42.848;25.468;2023-04-05T14:19:38;95847.09;;;6.46;89.95
37068;BME280;22982;42.848;25.468;2023-04-05T14:24:44;95825.66;;;6.41;90.65
37068;BME280;22982;42.848;25.468;2023-04-05T14:29:53;95796.09;;;6.25;91.10
37068;BME280;22982;42.848;25.468;2023-04-05T14:34:58;95851.66;;;6.25;91.01
37068;BME280;22982;42.848;25.468;2023-04-05T14:40:01;95872.00;;;6.35;91.84
37068;BME280;22982;42.848;25.468;2023-04-05T14:45:03;95860.72;;;6.34;92.26
37068;BME280;22982;42.848;25.468;2023-04-05T14:50:06;95862.03;;;6.43;91.71
37068;BME280;22982;42.848;25.468;2023-04-05T14:55:09;95843.50;;;6.31;90.49
37068;BME280;22982;42.848;25.468;2023-04-05T15:00:14;95866.56;;;6.39;88.08
37068;BME280;22982;42.848;25.468;2023-04-05T15:05:18;95864.41;;;6.47;90.31
37068;BME280;22982;42.848;25.468;2023-04-05T15:10:20;95878.44;;;6.27;90.51
37068;BME280;22982;42.848;25.468;2023-04-05T15:15:22;95866.47;;;6.23;91.13
37068;BME280;22982;42.848;25.468;2023-04-05T15:20:25;95872.44;;;6.08;92.42
37068;BME280;22982;42.848;25.468;2023-04-05T15:25:28;95860.13;;;5.75;93.76
37068;BME280;22982;42.848;25.468;2023-04-05T15:30:30;95884.56;;;5.90;94.71
37068;BME280;22982;42.848;25.468;2023-04-05T15:35:35;95868.56;;;5.80;94.94
37068;BME280;22982;42.848;25.468;2023-04-05T15:40:37;95863.03;;;5.86;94.60
37068;BME280;22982;42.848;25.468;2023-04-05T15:45:41;95887.22;;;5.88;95.93
37068;BME280;22982;42.848;25.468;2023-04-05T15:50:43;95873.16;;;5.92;93.62
37068;BME280;22982;42.848;25.468;2023-04-05T15:55:46;95868.94;;;5.53;95.81
37068;BME280;22982;42.848;25.468;2023-04-05T16:00:49;95874.22;;;5.52;94.86
37068;BME280;22982;42.848;25.468;2023-04-05T16:05:51;95855.72;;;5.39;95.78
37068;BME280;22982;42.848;25.468;2023-04-05T16:10:55;95895.69;;;5.36;96.45
37068;BME280;22982;42.848;25.468;2023-04-05T16:16:00;95879.47;;;5.50;96.04
37068;BME280;22982;42.848;25.468;2023-04-05T16:21:02;95883.91;;;5.48;96.77
37068;BME280;22982;42.848;25.468;2023-04-05T16:26:04;95914.13;;;5.70;95.02
37068;BME280;22982;42.848;25.468;2023-04-05T16:31:07;95906.06;;;5.57;96.32
37068;BME280;22982;42.848;25.468;2023-04-05T16:36:09;95900.63;;;5.62;96.79
37068;BME280;22982;42.848;25.468;2023-04-05T16:41:13;95886.88;;;5.41;97.34
37068;BME280;22982;42.848;25.468;2023-04-05T16:46:15;95902.75;;;5.53;97.98
37068;BME280;22982;42.848;25.468;2023-04-05T16:51:18;95907.22;;;5.31;100.00
37068;BME280;22982;42.848;25.468;2023-04-05T16:56:21;95924.53;;;5.32;100.00
37068;BME280;22982;42.848;25.468;2023-04-05T17:01:26;95888.63;;;4.82;100.00
37068;BME280;22982;42.848;25.468;2023-04-05T17:06:28;95922.78;;;4.93;100.00
37068;BME280;22982;42.848;25.468;2023-04-05T17:11:30;95891.75;;;4.69;100.00
37068;BME280;22982;42.848;25.468;2023-04-05T17:16:33;95902.91;;;4.71;100.00
37068;BME280;22982;42.848;25.468;2023-04-05T17:21:36;95952.13;;;4.74;100.00
37068;BME280;22982;42.848;25.468;2023-04-05T17:26:38;95931.66;;;4.46;100.00
37068;BME280;22982;42.848;25.468;2023-04-05T17:31:41;95931.31;;;4.13;100.00
37068;BME280;22982;42.848;25.468;2023-04-05T17:36:46;95962.06;;;4.22;100.00
37068;BME280;22982;42.848;25.468;2023-04-05T17:41:48;95971.13;;;4.12;100.00
37068;BME280;22982;42.848;25.468;2023-04-05T17:46:51;95936.25;;;3.75;100.00
37068;BME280;22982;42.848;25.468;2023-04-05T17:52:09;95979.22;;;4.04;100.00
37068;BME280;22982;42.848;25.468;2023-04-05T17:57:14;95966.78;;;3.90;100.00
37068;BME280;22982;42.848;25.468;2023-04-05T18:02:16;95939.50;;;3.58;100.00
37068;BME280;22982;42.848;25.468;2023-04-05T18:07:19;95965.94;;;3.90;100.00
37068;BME280;22982;42.848;25.468;2023-04-05T18:12:22;95961.00;;;3.83;100.00
37068;BME280;22982;42.848;25.468;2023-04-05T18:17:24;95996.59;;;4.02;100.00
37068;BME280;22982;42.848;25.468;2023-04-05T18:22:30;95978.19;;;3.86;100.00
37068;BME280;22982;42.848;25.468;2023-04-05T18:27:34;95973.28;;;3.56;100.00
37068;BME280;22982;42.848;25.468;2023-04-05T18:32:37;96010.16;;;3.39;100.00
37068;BME280;22982;42.848;25.468;2023-04-05T18:37:41;95992.69;;;3.21;100.00
37068;BME280;22982;42.848;25.468;2023-04-05T18:42:43;95999.28;;;3.30;100.00
37068;BME280;22982;42.848;25.468;2023-04-05T18:47:47;96005.94;;;3.37;100.00
37068;BME280;22982;42.848;25.468;2023-04-05T18:53:01;96024.41;;;3.28;100.00
37068;BME280;22982;42.848;25.468;2023-04-05T18:58:16;96018.22;;;3.32;100.00
37068;BME280;22982;42.848;25.468;2023-04-05T19:03:24;95993.34;;;3.02;100.00
37068;BME280;22982;42.848;25.468;2023-04-05T19:08:43;96009.72;;;3.28;100.00
37068;BME280;22982;42.848;25.468;2023-04-05T19:14:09;95974.41;;;3.00;100.00
37068;BME280;22982;42.848;25.468;2023-04-05T19:19:22;96017.56;;;3.25;100.00
37068;BME280;22982;42.848;25.468;2023-04-05T19:24:32;95943.25;;;2.78;100.00
37068;BME280;22982;42.848;25.468;2023-04-05T19:29:38;96005.50;;;3.25;100.00
37068;BME280;22982;42.848;25.468;2023-04-05T19:35:13;95982.75;;;3.09;100.00
37068;BME280;22982;42.848;25.468;2023-04-05T19:40:17;96024.38;;;3.29;100.00
37068;BME280;22982;42.848;25.468;2023-04-05T19:45:34;95973.72;;;2.95;100.00
37068;BME280;22982;42.848;25.468;2023-04-05T19:50:57;95963.00;;;3.06;100.00
37068;BME280;22982;42.848;25.468;2023-04-05T19:56:31;95930.19;;;2.81;100.00
37068;BME280;22982;42.848;25.468;2023-04-05T20:01:40;95971.56;;;2.83;100.00
37068;BME280;22982;42.848;25.468;2023-04-05T20:06:50;96007.50;;;3.17;100.00
37068;BME280;22982;42.848;25.468;2023-04-05T20:12:10;95999.63;;;3.20;100.00
37068;BME280;22982;42.848;25.468;2023-04-05T20:17:29;95953.94;;;2.93;100.00
37068;BME280;22982;42.848;25.468;2023-04-05T20:22:36;95983.50;;;3.12;100.00
37068;BME280;22982;42.848;25.468;2023-04-05T20:27:47;96012.53;;;3.22;100.00
37068;BME280;22982;42.848;25.468;2023-04-05T20:33:30;95980.75;;;2.92;100.00
37068;BME280;22982;42.848;25.468;2023-04-05T20:38:44;95971.84;;;3.00;100.00
37068;BME280;22982;42.848;25.468;2023-04-05T20:44:00;96009.06;;;3.21;100.00
37068;BME280;22982;42.848;25.468;2023-04-05T20:49:03;95956.75;;;2.86;100.00
37068;BME280;22982;42.848;25.468;2023-04-05T20:59:37;95940.41;;;2.86;100.00
37068;BME280;22982;42.848;25.468;2023-04-05T21:04:46;95955.28;;;2.79;100.00
37068;BME280;22982;42.848;25.468;2023-04-05T21:10:13;95947.88;;;2.94;100.00
37068;BME280;22982;42.848;25.468;2023-04-05T21:15:29;95998.88;;;3.17;100.00
37068;BME280;22982;42.848;25.468;2023-04-05T21:20:36;95949.09;;;2.83;100.00
37068;BME280;22982;42.848;25.468;2023-04-05T21:25:46;96004.63;;;3.25;100.00
37068;BME280;22982;42.848;25.468;2023-04-05T21:30:53;95992.19;;;3.11;100.00
37068;BME280;22982;42.848;25.468;2023-04-05T21:36:06;95967.75;;;2.68;100.00
37068;BME280;22982;42.848;25.468;2023-04-05T21:41:12;95958.25;;;2.68;100.00
37068;BME280;22982;42.848;25.468;2023-04-05T21:46:23;95996.72;;;2.79;100.00
37068;BME280;22982;42.848;25.468;2023-04-05T21:51:40;95955.72;;;2.67;100.00
37068;BME280;22982;42.848;25.468;2023-04-05T21:56:46;95990.47;;;2.60;100.00
37068;BME280;22982;42.848;25.468;2023-04-05T22:02:01;95963.97;;;2.26;100.00
37068;BME280;22982;42.848;25.468;2023-04-05T22:07:32;95895.97;;;1.96;100.00
37068;BME280;22982;42.848;25.468;2023-04-05T22:12:37;95985.28;;;2.60;100.00
37068;BME280;22982;42.848;25.468;2023-04-05T22:18:08;95988.38;;;2.71;100.00
37068;BME280;22982;42.848;25.468;2023-04-05T22:23:15;95964.78;;;2.54;100.00
37068;BME280;22982;42.848;25.468;2023-04-05T22:28:19;95967.78;;;2.41;100.00
37068;BME280;22982;42.848;25.468;2023-04-05T22:33:47;95958.63;;;2.31;100.00
37068;BME280;22982;42.848;25.468;2023-04-05T22:39:03;95905.16;;;2.05;100.00
37068;BME280;22982;42.848;25.468;2023-04-05T22:44:18;95908.22;;;1.89;100.00
37068;BME280;22982;42.848;25.468;2023-04-05T22:50:01;95959.81;;;2.47;100.00
37068;BME280;22982;42.848;25.468;2023-04-05T22:55:06;95944.81;;;2.32;100.00
37068;BME280;22982;42.848;25.468;2023-04-05T23:00:19;95944.84;;;2.04;100.00
37068;BME280;22982;42.848;25.468;2023-04-05T23:05:25;95931.25;;;2.24;100.00
37068;BME280;22982;42.848;25.468;2023-04-05T23:10:27;95917.44;;;2.25;100.00
37068;BME280;22982;42.848;25.468;2023-04-05T23:15:34;95937.94;;;2.31;100.00
37068;BME280;22982;42.848;25.468;2023-04-05T23:20:39;95928.59;;;2.52;100.00
37068;BME280;22982;42.848;25.468;2023-04-05T23:25:47;95898.63;;;2.20;100.00
37068;BME280;22982;42.848;25.468;2023-04-05T23:30:58;95928.75;;;2.47;100.00
37068;BME280;22982;42.848;25.468;2023-04-05T23:36:02;95916.63;;;2.49;99.53
37068;BME280;22982;42.848;25.468;2023-04-05T23:41:07;95905.41;;;2.74;100.00
37068;BME280;22982;42.848;25.468;2023-04-05T23:46:15;95922.09;;;2.91;100.00
37068;BME280;22982;42.848;25.468;2023-04-05T23:51:44;95905.31;;;2.77;99.90
37068;BME280;22982;42.848;25.468;2023-04-05T23:56:50;95877.22;;;2.66;100.00
